createdAt,value
2023-04-15T00:00:49.740Z,0.00
2023-04-15T00:01:49.810Z,0.00
2023-04-15T00:02:49.884Z,0.00
2023-04-15T00:03:49.845Z,0.00
2023-04-15T00:04:50.002Z,0.00
2023-04-15T00:05:49.815Z,0.00
2023-04-15T00:06:49.802Z,0.00
2023-04-15T00:07:49.874Z,0.00
2023-04-15T00:08:49.855Z,0.00
2023-04-15T00:09:49.832Z,0.00
2023-04-15T00:10:49.897Z,0.00
2023-04-15T00:11:49.967Z,0.00
2023-04-15T00:12:49.991Z,0.00
2023-04-15T00:13:49.963Z,0.00
2023-04-15T00:14:49.955Z,0.00
2023-04-15T00:15:50.005Z,0.00
2023-04-15T00:16:50.134Z,0.00
2023-04-15T00:17:50.134Z,0.00
2023-04-15T00:18:50.113Z,0.00
2023-04-15T00:19:50.156Z,0.00
2023-04-15T00:20:50.235Z,0.00
2023-04-15T00:21:50.335Z,0.00
2023-04-15T00:22:50.345Z,0.00
2023-04-15T00:23:50.409Z,0.00
2023-04-15T00:24:50.456Z,0.00
2023-04-15T00:25:50.519Z,0.00
2023-04-15T00:26:50.574Z,0.00
2023-04-15T00:27:50.652Z,0.00
2023-04-15T00:28:50.722Z,0.00
2023-04-15T00:29:50.694Z,0.00
2023-04-15T00:30:50.819Z,0.00
2023-04-15T00:31:50.796Z,0.00
2023-04-15T00:32:50.969Z,0.00
2023-04-15T00:33:50.853Z,0.00
2023-04-15T00:34:50.923Z,0.00
2023-04-15T00:35:50.999Z,0.00
2023-04-15T00:36:51.049Z,0.00
2023-04-15T00:37:51.036Z,0.00
2023-04-15T00:38:51.012Z,0.00
2023-04-15T00:39:51.080Z,0.00
2023-04-15T00:40:51.153Z,0.00
2023-04-15T00:41:51.236Z,0.00
2023-04-15T00:42:51.222Z,0.00
2023-04-15T00:43:51.213Z,0.00
2023-04-15T00:44:51.307Z,0.00
2023-04-15T00:45:51.363Z,0.00
2023-04-15T00:46:51.326Z,0.00
2023-04-15T00:47:51.331Z,0.00
2023-04-15T00:48:51.388Z,0.00
2023-04-15T00:49:51.467Z,0.00
2023-04-15T00:50:51.458Z,0.00
2023-04-15T00:51:51.538Z,0.00
2023-04-15T00:52:51.522Z,0.00
2023-04-15T00:53:51.604Z,0.00
2023-04-15T00:54:51.691Z,0.00
2023-04-15T00:55:51.680Z,0.00
2023-04-15T00:56:51.681Z,0.00
2023-04-15T00:57:51.748Z,0.00
2023-04-15T00:58:51.746Z,0.00
2023-04-15T00:59:51.879Z,0.00
2023-04-15T01:00:51.827Z,0.00
2023-04-15T01:01:52.040Z,0.00
2023-04-15T01:02:51.939Z,0.00
2023-04-15T01:03:52.081Z,0.00
2023-04-15T01:04:51.936Z,0.00
2023-04-15T01:05:51.995Z,0.00
2023-04-15T01:06:52.012Z,0.00
2023-04-15T01:07:51.979Z,0.00
2023-04-15T01:08:51.981Z,0.00
2023-04-15T01:09:52.016Z,0.00
2023-04-15T01:10:51.999Z,0.00
2023-04-15T01:11:52.036Z,0.00
2023-04-15T01:12:52.075Z,0.00
2023-04-15T01:13:52.081Z,0.00
2023-04-15T01:14:52.102Z,0.00
2023-04-15T01:15:52.154Z,0.00
2023-04-15T01:16:52.160Z,0.00
2023-04-15T01:17:52.188Z,0.00
2023-04-15T01:18:52.181Z,0.00
2023-04-15T01:19:52.182Z,0.00
2023-04-15T01:20:52.169Z,0.00
2023-04-15T01:21:52.253Z,0.00
2023-04-15T01:22:52.263Z,0.00
2023-04-15T01:23:52.272Z,0.00
2023-04-15T01:24:52.291Z,0.00
2023-04-15T01:25:52.278Z,0.00
2023-04-15T01:26:52.367Z,0.00
2023-04-15T01:27:52.367Z,0.00
2023-04-15T01:28:52.346Z,0.00
2023-04-15T01:29:52.366Z,0.00
2023-04-15T01:30:52.364Z,0.00
2023-04-15T01:31:52.457Z,0.00
2023-04-15T01:32:52.401Z,0.00
2023-04-15T01:33:52.387Z,0.00
2023-04-15T01:34:52.398Z,0.00
2023-04-15T01:35:52.413Z,0.00
2023-04-15T01:36:52.470Z,0.00
2023-04-15T01:37:52.502Z,0.00
2023-04-15T01:38:52.492Z,0.00
2023-04-15T01:39:52.498Z,0.00
2023-04-15T01:40:52.531Z,0.00
2023-04-15T01:41:52.532Z,0.00
2023-04-15T01:42:52.536Z,0.00
2023-04-15T01:43:52.554Z,0.00
2023-04-15T01:44:52.564Z,0.00
2023-04-15T01:45:52.608Z,0.00
2023-04-15T01:46:52.709Z,0.00
2023-04-15T01:47:52.762Z,0.00
2023-04-15T01:48:52.648Z,0.00
2023-04-15T01:49:52.697Z,0.00
2023-04-15T01:50:52.725Z,0.00
2023-04-15T01:51:52.775Z,0.00
2023-04-15T01:52:52.817Z,0.00
2023-04-15T01:53:52.849Z,0.00
2023-04-15T01:54:52.885Z,0.00
2023-04-15T01:55:52.928Z,0.00
2023-04-15T01:56:52.967Z,0.00
2023-04-15T01:57:53.021Z,0.00
2023-04-15T01:58:53.067Z,0.00
2023-04-15T01:59:53.091Z,0.00
2023-04-15T02:00:53.145Z,0.00
2023-04-15T02:01:53.266Z,0.00
2023-04-15T02:02:53.250Z,0.00
2023-04-15T02:03:53.274Z,0.00
2023-04-15T02:04:53.238Z,0.00
2023-04-15T02:05:53.244Z,0.00
2023-04-15T02:06:53.262Z,0.00
2023-04-15T02:07:53.243Z,0.00
2023-04-15T02:08:53.226Z,0.00
2023-04-15T02:09:53.300Z,0.00
2023-04-15T02:10:53.294Z,0.00
2023-04-15T02:11:53.295Z,0.00
2023-04-15T02:12:53.295Z,0.00
2023-04-15T02:13:53.324Z,0.00
2023-04-15T02:14:53.354Z,0.00
2023-04-15T02:15:53.387Z,0.00
2023-04-15T02:16:53.503Z,0.00
2023-04-15T02:17:53.520Z,0.00
2023-04-15T02:18:53.493Z,0.00
2023-04-15T02:19:53.526Z,0.00
2023-04-15T02:20:53.548Z,0.00
2023-04-15T02:21:53.575Z,0.00
2023-04-15T02:22:53.589Z,0.00
2023-04-15T02:23:54.106Z,0.00
2023-04-15T02:24:53.619Z,0.00
2023-04-15T02:25:54.325Z,0.00
2023-04-15T02:26:53.615Z,0.00
2023-04-15T02:27:53.628Z,0.00
2023-04-15T02:28:53.700Z,0.00
2023-04-15T02:29:53.706Z,0.00
2023-04-15T02:30:53.766Z,0.00
2023-04-15T02:31:53.769Z,0.00
2023-04-15T02:32:53.781Z,0.00
2023-04-15T02:33:53.726Z,0.00
2023-04-15T02:34:53.753Z,0.00
2023-04-15T02:35:53.747Z,0.00
2023-04-15T02:36:53.828Z,0.00
2023-04-15T02:37:53.835Z,0.00
2023-04-15T02:38:53.833Z,0.00
2023-04-15T02:39:53.839Z,0.00
2023-04-15T02:40:53.839Z,0.00
2023-04-15T02:41:53.841Z,0.00
2023-04-15T02:42:53.843Z,0.00
2023-04-15T02:43:53.839Z,0.00
2023-04-15T02:44:53.831Z,0.00
2023-04-15T02:45:53.881Z,0.00
2023-04-15T02:46:53.868Z,0.00
2023-04-15T02:47:53.920Z,0.00
2023-04-15T02:48:53.899Z,0.00
2023-04-15T02:49:53.893Z,0.00
2023-04-15T02:50:53.899Z,0.00
2023-04-15T02:51:53.917Z,0.00
2023-04-15T02:52:53.928Z,0.00
2023-04-15T02:53:53.913Z,0.00
2023-04-15T02:54:53.910Z,0.00
2023-04-15T02:55:53.934Z,0.00
2023-04-15T02:56:53.944Z,0.00
2023-04-15T02:57:53.946Z,0.00
2023-04-15T02:58:53.949Z,0.00
2023-04-15T02:59:53.950Z,0.00
2023-04-15T03:00:53.936Z,0.00
2023-04-15T03:01:53.988Z,0.00
2023-04-15T03:02:54.043Z,0.00
2023-04-15T03:03:53.989Z,0.00
2023-04-15T03:04:54.004Z,0.00
2023-04-15T03:05:53.993Z,0.00
2023-04-15T03:06:53.986Z,0.00
2023-04-15T03:07:53.987Z,0.00
2023-04-15T03:08:54.013Z,0.00
2023-04-15T03:09:54.008Z,0.00
2023-04-15T03:10:53.992Z,0.00
2023-04-15T03:11:54.002Z,0.00
2023-04-15T03:12:54.004Z,0.00
2023-04-15T03:13:54.013Z,0.00
2023-04-15T03:14:54.012Z,0.00
2023-04-15T03:15:54.054Z,0.00
2023-04-15T03:16:54.038Z,0.00
2023-04-15T03:17:54.077Z,0.00
2023-04-15T03:18:54.051Z,0.00
2023-04-15T03:19:54.066Z,0.00
2023-04-15T03:20:54.043Z,0.00
2023-04-15T03:21:54.048Z,0.00
2023-04-15T03:22:54.013Z,0.00
2023-04-15T03:23:54.097Z,0.00
2023-04-15T03:24:54.126Z,0.00
2023-04-15T03:25:54.118Z,0.00
2023-04-15T03:26:54.170Z,0.00
2023-04-15T03:27:54.208Z,0.00
2023-04-15T03:28:54.243Z,0.00
2023-04-15T03:29:54.267Z,0.00
2023-04-15T03:30:54.289Z,0.00
2023-04-15T03:31:54.267Z,0.00
2023-04-15T03:32:54.276Z,0.00
2023-04-15T03:33:54.276Z,0.00
2023-04-15T03:34:54.269Z,0.00
2023-04-15T03:35:54.284Z,0.00
2023-04-15T03:36:54.293Z,0.00
2023-04-15T03:37:54.306Z,0.00
2023-04-15T03:38:54.314Z,0.00
2023-04-15T03:39:54.307Z,0.00
2023-04-15T03:40:54.309Z,0.00
2023-04-15T03:41:54.325Z,0.00
2023-04-15T03:42:54.311Z,0.00
2023-04-15T03:43:54.306Z,0.00
2023-04-15T03:44:54.293Z,0.00
2023-04-15T03:45:54.368Z,0.00
2023-04-15T03:46:54.424Z,0.00
2023-04-15T03:47:54.461Z,0.00
2023-04-15T03:48:54.469Z,0.00
2023-04-15T03:49:54.469Z,0.00
2023-04-15T03:50:54.471Z,0.00
2023-04-15T03:51:54.459Z,0.00
2023-04-15T03:52:54.531Z,0.00
2023-04-15T03:53:54.532Z,0.00
2023-04-15T03:54:54.598Z,0.00
2023-04-15T03:55:54.601Z,0.00
2023-04-15T03:56:54.581Z,0.00
2023-04-15T03:57:54.586Z,0.00
2023-04-15T03:58:54.572Z,4.00
2023-04-15T03:59:54.584Z,4.00
2023-04-15T04:00:54.573Z,4.00
2023-04-15T04:01:54.636Z,4.00
2023-04-15T04:02:54.682Z,4.00
2023-04-15T04:03:54.731Z,4.00
2023-04-15T04:04:54.722Z,8.00
2023-04-15T04:05:54.690Z,4.00
2023-04-15T04:06:54.694Z,8.00
2023-04-15T04:07:54.677Z,8.00
2023-04-15T04:08:54.682Z,8.00
2023-04-15T04:09:54.725Z,12.00
2023-04-15T04:10:54.733Z,12.00
2023-04-15T04:11:54.758Z,12.00
2023-04-15T04:12:54.789Z,16.00
2023-04-15T04:13:54.820Z,20.00
2023-04-15T04:14:54.839Z,20.00
2023-04-15T04:15:54.863Z,24.00
2023-04-15T04:16:54.902Z,24.00
2023-04-15T04:17:54.925Z,32.00
2023-04-15T04:18:54.910Z,32.00
2023-04-15T04:19:54.918Z,40.00
2023-04-15T04:20:54.922Z,44.00
2023-04-15T04:21:54.925Z,44.00
2023-04-15T04:22:54.948Z,56.00
2023-04-15T04:23:54.961Z,60.00
2023-04-15T04:24:54.975Z,68.00
2023-04-15T04:25:54.986Z,72.00
2023-04-15T04:26:54.984Z,72.00
2023-04-15T04:27:55.016Z,84.00
2023-04-15T04:28:55.025Z,88.00
2023-04-15T04:29:55.051Z,92.00
2023-04-15T04:30:55.082Z,100.00
2023-04-15T04:31:55.166Z,100.00
2023-04-15T04:32:55.240Z,112.00
2023-04-15T04:33:55.212Z,116.00
2023-04-15T04:34:55.207Z,124.00
2023-04-15T04:35:55.203Z,140.00
2023-04-15T04:36:55.221Z,140.00
2023-04-15T04:37:55.206Z,156.00
2023-04-15T04:38:55.216Z,156.00
2023-04-15T04:39:55.211Z,184.00
2023-04-15T04:40:55.223Z,200.00
2023-04-15T04:41:55.224Z,196.00
2023-04-15T04:42:55.242Z,228.00
2023-04-15T04:43:55.257Z,232.00
2023-04-15T04:44:55.301Z,248.00
2023-04-15T04:45:55.347Z,260.00
2023-04-15T04:46:55.346Z,288.00
2023-04-15T04:47:55.407Z,316.00
2023-04-15T04:48:55.430Z,344.00
2023-04-15T04:49:55.478Z,364.00
2023-04-15T04:50:55.521Z,372.00
2023-04-15T04:51:55.605Z,432.00
2023-04-15T04:52:55.572Z,448.00
2023-04-15T04:53:55.640Z,448.00
2023-04-15T04:54:55.697Z,452.00
2023-04-15T04:55:55.753Z,448.00
2023-04-15T04:56:55.803Z,464.00
2023-04-15T04:57:55.885Z,484.00
2023-04-15T04:58:55.875Z,544.00
2023-04-15T04:59:55.879Z,576.00
2023-04-15T05:00:56.005Z,640.00
2023-04-15T05:01:56.055Z,704.00
2023-04-15T05:02:56.170Z,828.00
2023-04-15T05:03:56.165Z,828.00
2023-04-15T05:04:56.124Z,916.00
2023-04-15T05:05:56.159Z,900.00
2023-04-15T05:06:56.176Z,1008.00
2023-04-15T05:07:56.248Z,964.00
2023-04-15T05:08:56.257Z,1008.00
2023-04-15T05:09:56.248Z,968.00
2023-04-15T05:10:56.244Z,956.00
2023-04-15T05:11:56.288Z,1068.00
2023-04-15T05:12:56.297Z,1028.00
2023-04-15T05:13:56.326Z,996.00
2023-04-15T05:14:56.344Z,1032.00
2023-04-15T05:15:56.421Z,1024.00
2023-04-15T05:16:56.399Z,1024.00
2023-04-15T05:17:56.465Z,1000.00
2023-04-15T05:18:56.422Z,908.00
2023-04-15T05:19:56.422Z,828.00
2023-04-15T05:20:56.428Z,924.00
2023-04-15T05:21:56.470Z,956.00
2023-04-15T05:22:56.550Z,1000.00
2023-04-15T05:23:56.568Z,1100.00
2023-04-15T05:24:56.622Z,1208.00
2023-04-15T05:25:56.651Z,1348.00
2023-04-15T05:26:56.697Z,1548.00
2023-04-15T05:27:56.755Z,1540.00
2023-04-15T05:28:56.790Z,1764.00
2023-04-15T05:29:56.837Z,1812.00
2023-04-15T05:30:56.861Z,1856.00
2023-04-15T05:31:56.842Z,1916.00
2023-04-15T05:32:56.956Z,2020.00
2023-04-15T05:33:56.866Z,1900.00
2023-04-15T05:34:56.896Z,1928.00
2023-04-15T05:35:56.953Z,2036.00
2023-04-15T05:36:56.985Z,1852.00
2023-04-15T05:37:57.073Z,1860.00
2023-04-15T05:38:57.098Z,1932.00
2023-04-15T05:39:57.127Z,1764.00
2023-04-15T05:40:57.201Z,1768.00
2023-04-15T05:41:57.189Z,1740.00
2023-04-15T05:42:57.202Z,1924.00
2023-04-15T05:43:57.257Z,1920.00
2023-04-15T05:44:57.239Z,2100.00
2023-04-15T05:45:57.302Z,2100.00
2023-04-15T05:46:57.243Z,2068.00
2023-04-15T05:47:57.267Z,2024.00
2023-04-15T05:48:57.257Z,2060.00
2023-04-15T05:49:57.287Z,1968.00
2023-04-15T05:50:57.294Z,2032.00
2023-04-15T05:51:57.285Z,2040.00
2023-04-15T05:52:57.282Z,1984.00
2023-04-15T05:53:57.283Z,2008.00
2023-04-15T05:54:57.309Z,2080.00
2023-04-15T05:55:57.343Z,2060.00
2023-04-15T05:56:57.357Z,2000.00
2023-04-15T05:57:57.429Z,2268.00
2023-04-15T05:58:57.482Z,2072.00
2023-04-15T05:59:57.512Z,2132.00
2023-04-15T06:00:57.539Z,2116.00
2023-04-15T06:01:57.562Z,2152.00
2023-04-15T06:02:57.644Z,2136.00
2023-04-15T06:03:57.797Z,2132.00
2023-04-15T06:04:57.741Z,2068.00
2023-04-15T06:05:57.787Z,1944.00
2023-04-15T06:06:57.783Z,1984.00
2023-04-15T06:07:57.785Z,1944.00
2023-04-15T06:08:57.759Z,1840.00
2023-04-15T06:09:57.771Z,1720.00
2023-04-15T06:10:57.833Z,1800.00
2023-04-15T06:11:57.910Z,1652.00
2023-04-15T06:12:57.917Z,1716.00
2023-04-15T06:13:57.942Z,1636.00
2023-04-15T06:14:59.925Z,1508.00
2023-04-15T06:15:58.017Z,1384.00
2023-04-15T06:16:57.983Z,1284.00
2023-04-15T06:17:58.061Z,1276.00
2023-04-15T06:18:58.034Z,1292.00
2023-04-15T06:19:58.100Z,1144.00
2023-04-15T06:20:58.076Z,1076.00
2023-04-15T06:21:58.144Z,1212.00
2023-04-15T06:22:58.213Z,1260.00
2023-04-15T06:23:58.237Z,1548.00
2023-04-15T06:24:58.268Z,1512.00
2023-04-15T06:25:58.301Z,1784.00
2023-04-15T06:26:58.334Z,1892.00
2023-04-15T06:27:58.312Z,1808.00
2023-04-15T06:28:58.435Z,1772.00
2023-04-15T06:29:58.417Z,1792.00
2023-04-15T06:30:58.438Z,2088.00
2023-04-15T06:31:58.525Z,2080.00
2023-04-15T06:32:58.501Z,2136.00
2023-04-15T06:33:58.498Z,2332.00
2023-04-15T06:34:58.549Z,2348.00
2023-04-15T06:35:58.613Z,2572.00
2023-04-15T06:36:58.636Z,2612.00
2023-04-15T06:37:58.654Z,2460.00
2023-04-15T06:38:58.643Z,2256.00
2023-04-15T06:39:58.660Z,2568.00
2023-04-15T06:40:58.717Z,2504.00
2023-04-15T06:41:58.726Z,2168.00
2023-04-15T06:42:58.737Z,2588.00
2023-04-15T06:43:58.743Z,2848.00
2023-04-15T06:44:58.800Z,2708.00
2023-04-15T06:45:58.874Z,2724.00
2023-04-15T06:46:58.880Z,2900.00
2023-04-15T06:47:58.937Z,2692.00
2023-04-15T06:48:58.993Z,2952.00
2023-04-15T06:49:59.004Z,2672.00
2023-04-15T06:50:59.009Z,2788.00
2023-04-15T06:51:59.003Z,3224.00
2023-04-15T06:52:59.025Z,3292.00
2023-04-15T06:53:59.030Z,3572.00
2023-04-15T06:54:59.063Z,3392.00
2023-04-15T06:55:59.070Z,3348.00
2023-04-15T06:56:59.075Z,3508.00
2023-04-15T06:57:59.077Z,3708.00
2023-04-15T06:58:59.152Z,3764.00
2023-04-15T06:59:59.117Z,3404.00
2023-04-15T07:00:59.159Z,3600.00
2023-04-15T07:01:59.165Z,3732.00
2023-04-15T07:02:59.179Z,3428.00
2023-04-15T07:03:59.212Z,3236.00
2023-04-15T07:04:59.310Z,3392.00
2023-04-15T07:05:59.299Z,3380.00
2023-04-15T07:06:59.263Z,3404.00
2023-04-15T07:07:59.331Z,3008.00
2023-04-15T07:08:59.341Z,2916.00
2023-04-15T07:09:59.367Z,3096.00
2023-04-15T07:10:59.498Z,3352.00
2023-04-15T07:11:59.449Z,3216.00
2023-04-15T07:12:59.507Z,3096.00
2023-04-15T07:13:59.542Z,2820.00
2023-04-15T07:14:59.540Z,2696.00
2023-04-15T07:15:59.552Z,2676.00
2023-04-15T07:16:59.595Z,2816.00
2023-04-15T07:17:59.573Z,2904.00
2023-04-15T07:18:59.901Z,2936.00
2023-04-15T07:19:59.558Z,2584.00
2023-04-15T07:20:59.546Z,2632.00
2023-04-15T07:21:59.522Z,2704.00
2023-04-15T07:22:59.619Z,2640.00
2023-04-15T07:23:59.625Z,2996.00
2023-04-15T07:24:59.692Z,2504.00
2023-04-15T07:25:59.718Z,2668.00
2023-04-15T07:27:01.222Z,2808.00
2023-04-15T07:27:59.815Z,2800.00
2023-04-15T07:29:00.164Z,2964.00
2023-04-15T07:29:59.878Z,2848.00
2023-04-15T07:30:59.945Z,3036.00
2023-04-15T07:31:59.920Z,3360.00
2023-04-15T07:32:59.966Z,3300.00
2023-04-15T07:33:59.951Z,3140.00
2023-04-15T07:34:59.942Z,3296.00
2023-04-15T07:36:00.007Z,3256.00
2023-04-15T07:37:00.049Z,3732.00
2023-04-15T07:38:00.090Z,3592.00
2023-04-15T07:39:00.447Z,3396.00
2023-04-15T07:40:00.181Z,3592.00
2023-04-15T07:41:00.150Z,3960.00
2023-04-15T07:42:00.182Z,4176.00
2023-04-15T07:43:00.190Z,3856.00
2023-04-15T07:44:00.229Z,3808.00
2023-04-15T07:45:00.295Z,3956.00
2023-04-15T07:46:00.423Z,4564.00
2023-04-15T07:47:00.343Z,4420.00
2023-04-15T07:48:00.399Z,4220.00
2023-04-15T07:49:00.929Z,4560.00
2023-04-15T07:50:00.476Z,4348.00
2023-04-15T07:51:00.547Z,4432.00
2023-04-15T07:52:00.608Z,4108.00
2023-04-15T07:53:00.650Z,4412.00
2023-04-15T07:54:00.721Z,4528.00
2023-04-15T07:55:00.779Z,4224.00
2023-04-15T07:56:00.835Z,4112.00
2023-04-15T07:57:00.833Z,4300.00
2023-04-15T07:58:00.872Z,4196.00
2023-04-15T07:59:01.218Z,4524.00
2023-04-15T08:00:00.974Z,4508.00
2023-04-15T08:01:01.028Z,4540.00
2023-04-15T08:02:01.139Z,4528.00
2023-04-15T08:03:01.194Z,4340.00
2023-04-15T08:04:01.234Z,4316.00
2023-04-15T08:05:01.192Z,4024.00
2023-04-15T08:06:01.215Z,3792.00
2023-04-15T08:07:01.244Z,4048.00
2023-04-15T08:08:01.273Z,3968.00
2023-04-15T08:09:01.513Z,3880.00
2023-04-15T08:10:01.318Z,3776.00
2023-04-15T08:11:01.343Z,3780.00
2023-04-15T08:12:01.361Z,3848.00
2023-04-15T08:13:01.536Z,3784.00
2023-04-15T08:14:01.483Z,4004.00
2023-04-15T08:15:01.516Z,4064.00
2023-04-15T08:16:01.577Z,4216.00
2023-04-15T08:17:01.613Z,4644.00
2023-04-15T08:18:01.639Z,4436.00
2023-04-15T08:19:01.846Z,4448.00
2023-04-15T08:20:01.727Z,4168.00
2023-04-15T08:21:01.783Z,4144.00
2023-04-15T08:22:01.838Z,4352.00
2023-04-15T08:23:01.891Z,4120.00
2023-04-15T08:24:01.973Z,4496.00
2023-04-15T08:25:01.960Z,4604.00
2023-04-15T08:26:01.942Z,4444.00
2023-04-15T08:27:01.977Z,4328.00
2023-04-15T08:28:01.976Z,4488.00
2023-04-15T08:29:02.540Z,4896.00
2023-04-15T08:30:04.702Z,5032.00
2023-04-15T08:31:02.012Z,5232.00
2023-04-15T08:32:02.059Z,5556.00
2023-04-15T08:33:02.242Z,5348.00
2023-04-15T08:34:02.144Z,5368.00
2023-04-15T08:35:02.875Z,5692.00
2023-04-15T08:36:02.110Z,5868.00
2023-04-15T08:37:02.407Z,5896.00
2023-04-15T08:38:02.209Z,6272.00
2023-04-15T08:39:02.422Z,5748.00
2023-04-15T08:40:02.315Z,6216.00
2023-04-15T08:41:02.348Z,7060.00
2023-04-15T08:42:02.410Z,6644.00
2023-04-15T08:43:02.377Z,6120.00
2023-04-15T08:44:02.589Z,6108.00
2023-04-15T08:45:02.719Z,5644.00
2023-04-15T08:46:02.571Z,5960.00
2023-04-15T08:47:02.840Z,6312.00
2023-04-15T08:48:02.682Z,6372.00
2023-04-15T08:49:02.830Z,5252.00
2023-04-15T08:50:02.645Z,5732.00
2023-04-15T08:51:02.670Z,6488.00
2023-04-15T08:52:02.716Z,6328.00
2023-04-15T08:53:02.771Z,5656.00
2023-04-15T08:54:02.811Z,5212.00
2023-04-15T08:55:02.857Z,5604.00
2023-04-15T08:56:02.892Z,5308.00
2023-04-15T08:57:03.057Z,5820.00
2023-04-15T08:58:02.935Z,5864.00
2023-04-15T08:59:03.171Z,5492.00
2023-04-15T09:00:04.793Z,5396.00
2023-04-15T09:01:03.059Z,5124.00
2023-04-15T09:02:03.117Z,4984.00
2023-04-15T09:03:03.250Z,4740.00
2023-04-15T09:04:03.196Z,4740.00
2023-04-15T09:05:03.154Z,4736.00
2023-04-15T09:06:03.208Z,4648.00
2023-04-15T09:07:03.233Z,4708.00
2023-04-15T09:08:03.299Z,5152.00
2023-04-15T09:09:03.586Z,4492.00
2023-04-15T09:10:03.399Z,4360.00
2023-04-15T09:11:03.474Z,4208.00
2023-04-15T09:12:03.552Z,4064.00
2023-04-15T09:13:03.508Z,3512.00
2023-04-15T09:14:04.449Z,3980.00
2023-04-15T09:15:03.537Z,3936.00
2023-04-15T09:16:03.606Z,4104.00
2023-04-15T09:17:03.676Z,3940.00
2023-04-15T09:18:03.622Z,3976.00
2023-04-15T09:19:03.755Z,3564.00
2023-04-15T09:20:03.683Z,3768.00
2023-04-15T09:21:03.736Z,3848.00
2023-04-15T09:22:03.776Z,3820.00
2023-04-15T09:23:03.824Z,3656.00
2023-04-15T09:24:04.130Z,3392.00
2023-04-15T09:25:03.921Z,2856.00
2023-04-15T09:26:04.006Z,2480.00
2023-04-15T09:27:04.021Z,2344.00
2023-04-15T09:28:04.075Z,2152.00
2023-04-15T09:29:04.021Z,2280.00
2023-04-15T09:30:04.024Z,2304.00
2023-04-15T09:31:04.267Z,2476.00
2023-04-15T09:32:04.923Z,2628.00
2023-04-15T09:33:04.189Z,2340.00
2023-04-15T09:34:04.377Z,2560.00
2023-04-15T09:35:04.216Z,2716.00
2023-04-15T09:36:04.247Z,2460.00
2023-04-15T09:37:04.264Z,2456.00
2023-04-15T09:38:04.240Z,2864.00
2023-04-15T09:39:04.292Z,2784.00
2023-04-15T09:40:05.008Z,2768.00
2023-04-15T09:41:05.350Z,2660.00
2023-04-15T09:42:04.412Z,2620.00
2023-04-15T09:43:04.421Z,2792.00
2023-04-15T09:44:04.412Z,2660.00
2023-04-15T09:45:04.431Z,2732.00
2023-04-15T09:46:04.489Z,2896.00
2023-04-15T09:47:04.441Z,2684.00
2023-04-15T09:48:04.525Z,2636.00
2023-04-15T09:49:04.486Z,3052.00
2023-04-15T09:50:04.512Z,2976.00
2023-04-15T09:51:04.543Z,3052.00
2023-04-15T09:52:06.189Z,2892.00
2023-04-15T09:53:04.594Z,2776.00
2023-04-15T09:54:04.605Z,2740.00
2023-04-15T09:55:04.666Z,3120.00
2023-04-15T09:56:04.660Z,3072.00
2023-04-15T09:57:04.720Z,2920.00
2023-04-15T09:58:04.723Z,2744.00
2023-04-15T09:59:04.749Z,3112.00
2023-04-15T10:00:04.753Z,3396.00
2023-04-15T10:01:04.865Z,3304.00
2023-04-15T10:02:04.913Z,3748.00
2023-04-15T10:03:05.143Z,3876.00
2023-04-15T10:04:05.303Z,3748.00
2023-04-15T10:05:04.991Z,3156.00
2023-04-15T10:06:05.037Z,2828.00
2023-04-15T10:07:05.079Z,3324.00
2023-04-15T10:08:05.127Z,3012.00
2023-04-15T10:09:05.164Z,2856.00
2023-04-15T10:10:05.220Z,2756.00
2023-04-15T10:11:05.456Z,3192.00
2023-04-15T10:12:05.266Z,3188.00
2023-04-15T10:13:05.241Z,3216.00
2023-04-15T10:14:05.258Z,3160.00
2023-04-15T10:15:05.279Z,3252.00
2023-04-15T10:16:05.381Z,3128.00
2023-04-15T10:17:05.360Z,3128.00
2023-04-15T10:18:05.452Z,3024.00
2023-04-15T10:19:05.398Z,3360.00
2023-04-15T10:20:05.583Z,3780.00
2023-04-15T10:21:05.435Z,3664.00
2023-04-15T10:22:05.518Z,3504.00
2023-04-15T10:23:06.892Z,3664.00
2023-04-15T10:24:05.584Z,3500.00
2023-04-15T10:25:05.639Z,3392.00
2023-04-15T10:26:05.657Z,3660.00
2023-04-15T10:27:05.712Z,3356.00
2023-04-15T10:28:05.767Z,3508.00
2023-04-15T10:29:05.752Z,3528.00
2023-04-15T10:30:05.813Z,3236.00
2023-04-15T10:31:06.825Z,3292.00
2023-04-15T10:32:05.955Z,3268.00
2023-04-15T10:33:05.964Z,3200.00
2023-04-15T10:34:06.021Z,2768.00
2023-04-15T10:35:06.039Z,2660.00
2023-04-15T10:36:06.116Z,2772.00
2023-04-15T10:37:06.163Z,2408.00
2023-04-15T10:38:06.129Z,2408.00
2023-04-15T10:39:06.159Z,2416.00
2023-04-15T10:40:06.159Z,2164.00
2023-04-15T10:41:06.162Z,2388.00
2023-04-15T10:42:06.150Z,2196.00
2023-04-15T10:43:06.165Z,2244.00
2023-04-15T10:44:06.279Z,2236.00
2023-04-15T10:45:06.230Z,2224.00
2023-04-15T10:46:06.297Z,2176.00
2023-04-15T10:47:06.321Z,2380.00
2023-04-15T10:48:06.404Z,2160.00
2023-04-15T10:49:06.422Z,2412.00
2023-04-15T10:50:06.427Z,2360.00
2023-04-15T10:51:06.481Z,2472.00
2023-04-15T10:52:06.549Z,2420.00
2023-04-15T10:53:06.713Z,2472.00
2023-04-15T10:54:06.899Z,2468.00
2023-04-15T10:55:06.766Z,2340.00
2023-04-15T10:56:06.658Z,2356.00
2023-04-15T10:57:06.713Z,2296.00
2023-04-15T10:58:06.765Z,2404.00
2023-04-15T10:59:06.694Z,2516.00
2023-04-15T11:00:06.778Z,2600.00
2023-04-15T11:01:06.843Z,2932.00
2023-04-15T11:02:07.022Z,2640.00
2023-04-15T11:03:07.211Z,2692.00
2023-04-15T11:04:07.313Z,2844.00
2023-04-15T11:05:07.068Z,2944.00
2023-04-15T11:06:07.050Z,2904.00
2023-04-15T11:07:07.087Z,2556.00
2023-04-15T11:08:07.060Z,2872.00
2023-04-15T11:09:07.135Z,2820.00
2023-04-15T11:10:07.162Z,2588.00
2023-04-15T11:11:07.227Z,2448.00
2023-04-15T11:12:07.208Z,2640.00
2023-04-15T11:13:07.242Z,2776.00
2023-04-15T11:14:07.268Z,2604.00
2023-04-15T11:15:07.289Z,2400.00
2023-04-15T11:16:07.334Z,2404.00
2023-04-15T11:17:07.317Z,2524.00
2023-04-15T11:18:07.393Z,2696.00
2023-04-15T11:19:07.371Z,2620.00
2023-04-15T11:20:07.378Z,2428.00
2023-04-15T11:21:07.449Z,2540.00
2023-04-15T11:22:07.523Z,2792.00
2023-04-15T11:23:14.349Z,2884.00
2023-04-15T11:24:07.806Z,3384.00
2023-04-15T11:25:07.544Z,3312.00
2023-04-15T11:26:07.613Z,2904.00
2023-04-15T11:27:07.670Z,2724.00
2023-04-15T11:28:07.659Z,2836.00
2023-04-15T11:29:07.661Z,2932.00
2023-04-15T11:30:07.694Z,2944.00
2023-04-15T11:31:08.637Z,2880.00
2023-04-15T11:32:07.796Z,2992.00
2023-04-15T11:33:07.756Z,2764.00
2023-04-15T11:34:07.822Z,2612.00
2023-04-15T11:35:07.753Z,2660.00
2023-04-15T11:36:07.825Z,2616.00
2023-04-15T11:37:07.871Z,2548.00
2023-04-15T11:38:07.897Z,2760.00
2023-04-15T11:39:07.910Z,2548.00
2023-04-15T11:40:08.079Z,2588.00
2023-04-15T11:41:09.202Z,2632.00
2023-04-15T11:42:07.936Z,2448.00
2023-04-15T11:43:07.954Z,2624.00
2023-04-15T11:44:07.961Z,2456.00
2023-04-15T11:45:07.997Z,2292.00
2023-04-15T11:46:08.059Z,2488.00
2023-04-15T11:47:08.037Z,2304.00
2023-04-15T11:48:08.072Z,2784.00
2023-04-15T11:49:08.100Z,2256.00
2023-04-15T11:50:08.117Z,2484.00
2023-04-15T11:51:08.138Z,2332.00
2023-04-15T11:52:08.132Z,2240.00
2023-04-15T11:53:08.652Z,2316.00
2023-04-15T11:54:08.218Z,2080.00
2023-04-15T11:55:08.265Z,2060.00
2023-04-15T11:56:08.271Z,1920.00
2023-04-15T11:57:08.257Z,2000.00
2023-04-15T11:58:08.289Z,2032.00
2023-04-15T11:59:08.297Z,2068.00
2023-04-15T12:00:08.302Z,2228.00
2023-04-15T12:01:08.333Z,2360.00
2023-04-15T12:02:08.526Z,2512.00
2023-04-15T12:03:08.580Z,2512.00
2023-04-15T12:04:08.684Z,2452.00
2023-04-15T12:05:08.480Z,2292.00
2023-04-15T12:06:08.462Z,2316.00
2023-04-15T12:07:08.482Z,2200.00
2023-04-15T12:08:08.481Z,2272.00
2023-04-15T12:09:08.496Z,2152.00
2023-04-15T12:10:08.511Z,2068.00
2023-04-15T12:11:08.525Z,1952.00
2023-04-15T12:12:08.548Z,1984.00
2023-04-15T12:13:08.531Z,2044.00
2023-04-15T12:14:08.542Z,2068.00
2023-04-15T12:15:08.551Z,2304.00
2023-04-15T12:16:08.587Z,2348.00
2023-04-15T12:17:08.587Z,2248.00
2023-04-15T12:18:08.667Z,1988.00
2023-04-15T12:19:08.656Z,2124.00
2023-04-15T12:20:08.697Z,2000.00
2023-04-15T12:21:08.705Z,2024.00
2023-04-15T12:22:08.699Z,2164.00
2023-04-15T12:23:08.729Z,1964.00
2023-04-15T12:24:08.765Z,2100.00
2023-04-15T12:25:08.816Z,2000.00
2023-04-15T12:26:08.820Z,1984.00
2023-04-15T12:27:08.861Z,1884.00
2023-04-15T12:28:08.852Z,1792.00
2023-04-15T12:29:08.846Z,1772.00
2023-04-15T12:30:08.854Z,1832.00
2023-04-15T12:31:08.909Z,1932.00
2023-04-15T12:32:08.966Z,1976.00